sensor_id;sensor_type;location;lat;lon;timestamp;P1;durP1;ratioP1;P2;durP2;ratioP2
30303;SDS011;17112;48.636;10.152;2023-02-11T00:01:34;31.45;;;15.77;;
30303;SDS011;17112;48.636;10.152;2023-02-11T00:04:01;34.92;;;16.63;;
30303;SDS011;17112;48.636;10.152;2023-02-11T00:06:28;30.65;;;15.63;;
30303;SDS011;17112;48.636;10.152;2023-02-11T00:08:55;32.80;;;16.50;;
30303;SDS011;17112;48.636;10.152;2023-02-11T00:11:21;30.38;;;16.15;;
30303;SDS011;17112;48.636;10.152;2023-02-11T00:13:49;33.58;;;16.67;;
30303;SDS011;17112;48.636;10.152;2023-02-11T00:16:17;39.30;;;15.88;;
30303;SDS011;17112;48.636;10.152;2023-02-11T00:18:44;32.42;;;15.55;;
30303;SDS011;17112;48.636;10.152;2023-02-11T00:21:14;30.60;;;15.32;;
30303;SDS011;17112;48.636;10.152;2023-02-11T00:23:42;36.78;;;15.93;;
30303;SDS011;17112;48.636;10.152;2023-02-11T00:26:16;34.70;;;16.83;;
30303;SDS011;17112;48.636;10.152;2023-02-11T00:28:44;34.05;;;15.48;;
30303;SDS011;17112;48.636;10.152;2023-02-11T00:31:11;34.47;;;16.42;;
30303;SDS011;17112;48.636;10.152;2023-02-11T00:33:38;33.65;;;16.08;;
30303;SDS011;17112;48.636;10.152;2023-02-11T00:36:04;29.15;;;15.45;;
30303;SDS011;17112;48.636;10.152;2023-02-11T00:38:31;33.38;;;15.85;;
30303;SDS011;17112;48.636;10.152;2023-02-11T00:40:57;35.40;;;15.98;;
30303;SDS011;17112;48.636;10.152;2023-02-11T00:43:22;36.50;;;15.57;;
30303;SDS011;17112;48.636;10.152;2023-02-11T00:45:48;30.15;;;14.80;;
30303;SDS011;17112;48.636;10.152;2023-02-11T00:48:14;28.60;;;14.43;;
30303;SDS011;17112;48.636;10.152;2023-02-11T00:50:40;33.75;;;15.65;;
30303;SDS011;17112;48.636;10.152;2023-02-11T00:53:05;33.33;;;15.25;;
30303;SDS011;17112;48.636;10.152;2023-02-11T00:55:32;31.95;;;15.18;;
30303;SDS011;17112;48.636;10.152;2023-02-11T00:57:58;34.65;;;14.93;;
30303;SDS011;17112;48.636;10.152;2023-02-11T01:00:24;29.45;;;14.43;;
30303;SDS011;17112;48.636;10.152;2023-02-11T01:02:50;29.77;;;14.38;;
30303;SDS011;17112;48.636;10.152;2023-02-11T01:05:17;29.67;;;15.10;;
30303;SDS011;17112;48.636;10.152;2023-02-11T01:07:43;30.00;;;14.82;;
30303;SDS011;17112;48.636;10.152;2023-02-11T01:10:09;29.05;;;14.88;;
30303;SDS011;17112;48.636;10.152;2023-02-11T01:12:35;29.63;;;14.40;;
30303;SDS011;17112;48.636;10.152;2023-02-11T01:15:02;32.40;;;15.57;;
30303;SDS011;17112;48.636;10.152;2023-02-11T01:17:28;35.47;;;14.57;;
30303;SDS011;17112;48.636;10.152;2023-02-11T01:19:54;28.00;;;14.88;;
30303;SDS011;17112;48.636;10.152;2023-02-11T01:22:20;29.63;;;14.95;;
30303;SDS011;17112;48.636;10.152;2023-02-11T01:24:46;30.83;;;15.20;;
30303;SDS011;17112;48.636;10.152;2023-02-11T01:27:11;30.60;;;14.55;;
30303;SDS011;17112;48.636;10.152;2023-02-11T01:29:37;31.75;;;15.38;;
30303;SDS011;17112;48.636;10.152;2023-02-11T01:32:03;31.75;;;15.45;;
30303;SDS011;17112;48.636;10.152;2023-02-11T01:34:28;34.55;;;16.63;;
30303;SDS011;17112;48.636;10.152;2023-02-11T01:36:57;38.08;;;15.98;;
30303;SDS011;17112;48.636;10.152;2023-02-11T01:39:23;34.03;;;16.27;;
30303;SDS011;17112;48.636;10.152;2023-02-11T01:41:50;33.00;;;15.43;;
30303;SDS011;17112;48.636;10.152;2023-02-11T01:44:27;35.10;;;16.20;;
30303;SDS011;17112;48.636;10.152;2023-02-11T01:46:55;29.15;;;14.65;;
30303;SDS011;17112;48.636;10.152;2023-02-11T01:49:29;30.48;;;15.88;;
30303;SDS011;17112;48.636;10.152;2023-02-11T01:52:01;37.97;;;15.70;;
30303;SDS011;17112;48.636;10.152;2023-02-11T01:54:43;33.97;;;15.27;;
30303;SDS011;17112;48.636;10.152;2023-02-11T01:57:32;31.42;;;14.95;;
30303;SDS011;17112;48.636;10.152;2023-02-11T02:00:02;31.50;;;15.48;;
30303;SDS011;17112;48.636;10.152;2023-02-11T02:08:52;34.38;;;15.40;;
30303;SDS011;17112;48.636;10.152;2023-02-11T02:11:45;33.47;;;14.88;;
30303;SDS011;17112;48.636;10.152;2023-02-11T02:14:11;37.95;;;15.98;;
30303;SDS011;17112;48.636;10.152;2023-02-11T02:16:37;33.50;;;15.05;;
30303;SDS011;17112;48.636;10.152;2023-02-11T02:22:12;33.10;;;14.70;;
30303;SDS011;17112;48.636;10.152;2023-02-11T02:30:03;31.95;;;14.98;;
30303;SDS011;17112;48.636;10.152;2023-02-11T02:35:34;34.83;;;15.05;;
30303;SDS011;17112;48.636;10.152;2023-02-11T02:41:10;33.17;;;15.68;;
30303;SDS011;17112;48.636;10.152;2023-02-11T02:43:40;33.15;;;15.15;;
30303;SDS011;17112;48.636;10.152;2023-02-11T02:46:13;29.75;;;13.88;;
30303;SDS011;17112;48.636;10.152;2023-02-11T02:48:44;30.83;;;15.60;;
30303;SDS011;17112;48.636;10.152;2023-02-11T02:56:44;38.28;;;16.83;;
30303;SDS011;17112;48.636;10.152;2023-02-11T03:04:51;36.88;;;16.83;;
30303;SDS011;17112;48.636;10.152;2023-02-11T03:07:34;41.58;;;17.42;;
30303;SDS011;17112;48.636;10.152;2023-02-11T03:10:18;35.70;;;17.15;;
30303;SDS011;17112;48.636;10.152;2023-02-11T03:12:48;35.80;;;17.25;;
30303;SDS011;17112;48.636;10.152;2023-02-11T03:15:16;47.28;;;17.67;;
30303;SDS011;17112;48.636;10.152;2023-02-11T03:17:44;38.63;;;17.00;;
30303;SDS011;17112;48.636;10.152;2023-02-11T03:20:12;33.20;;;16.40;;
30303;SDS011;17112;48.636;10.152;2023-02-11T03:22:43;33.03;;;16.60;;
30303;SDS011;17112;48.636;10.152;2023-02-11T03:25:14;33.75;;;16.23;;
30303;SDS011;17112;48.636;10.152;2023-02-11T03:27:42;44.13;;;18.23;;
30303;SDS011;17112;48.636;10.152;2023-02-11T03:32:54;38.45;;;17.42;;
30303;SDS011;17112;48.636;10.152;2023-02-11T03:35:30;36.28;;;16.67;;
30303;SDS011;17112;48.636;10.152;2023-02-11T03:38:10;40.65;;;17.58;;
30303;SDS011;17112;48.636;10.152;2023-02-11T03:40:58;34.28;;;16.30;;
30303;SDS011;17112;48.636;10.152;2023-02-11T03:43:34;38.47;;;17.05;;
30303;SDS011;17112;48.636;10.152;2023-02-11T03:46:13;32.95;;;15.05;;
30303;SDS011;17112;48.636;10.152;2023-02-11T03:48:44;34.80;;;15.77;;
30303;SDS011;17112;48.636;10.152;2023-02-11T03:51:13;35.20;;;16.65;;
30303;SDS011;17112;48.636;10.152;2023-02-11T03:53:41;33.83;;;15.65;;
30303;SDS011;17112;48.636;10.152;2023-02-11T03:56:12;40.80;;;17.13;;
30303;SDS011;17112;48.636;10.152;2023-02-11T03:58:43;38.28;;;16.67;;
30303;SDS011;17112;48.636;10.152;2023-02-11T04:01:09;32.90;;;16.13;;
30303;SDS011;17112;48.636;10.152;2023-02-11T04:03:36;33.75;;;15.63;;
30303;SDS011;17112;48.636;10.152;2023-02-11T04:06:02;31.40;;;15.88;;
30303;SDS011;17112;48.636;10.152;2023-02-11T04:08:27;32.83;;;15.80;;
30303;SDS011;17112;48.636;10.152;2023-02-11T04:10:53;32.55;;;15.73;;
30303;SDS011;17112;48.636;10.152;2023-02-11T04:13:19;32.55;;;15.73;;
30303;SDS011;17112;48.636;10.152;2023-02-11T04:15:45;29.00;;;14.20;;
30303;SDS011;17112;48.636;10.152;2023-02-11T04:18:10;33.08;;;15.43;;
30303;SDS011;17112;48.636;10.152;2023-02-11T04:20:36;33.92;;;15.90;;
30303;SDS011;17112;48.636;10.152;2023-02-11T04:23:02;29.98;;;14.57;;
30303;SDS011;17112;48.636;10.152;2023-02-11T04:25:27;34.17;;;16.38;;
30303;SDS011;17112;48.636;10.152;2023-02-11T04:27:53;39.05;;;16.05;;
30303;SDS011;17112;48.636;10.152;2023-02-11T04:30:18;34.60;;;16.38;;
30303;SDS011;17112;48.636;10.152;2023-02-11T04:32:44;34.55;;;15.80;;
30303;SDS011;17112;48.636;10.152;2023-02-11T04:35:10;33.92;;;16.85;;
30303;SDS011;17112;48.636;10.152;2023-02-11T04:37:35;33.55;;;16.40;;
30303;SDS011;17112;48.636;10.152;2023-02-11T04:40:01;33.15;;;16.20;;
30303;SDS011;17112;48.636;10.152;2023-02-11T04:42:27;38.97;;;17.10;;
30303;SDS011;17112;48.636;10.152;2023-02-11T04:44:53;38.20;;;17.20;;
30303;SDS011;17112;48.636;10.152;2023-02-11T04:47:18;37.53;;;17.10;;
30303;SDS011;17112;48.636;10.152;2023-02-11T04:49:44;30.92;;;16.50;;
30303;SDS011;17112;48.636;10.152;2023-02-11T04:52:09;36.47;;;17.02;;
30303;SDS011;17112;48.636;10.152;2023-02-11T04:54:35;36.75;;;17.23;;
30303;SDS011;17112;48.636;10.152;2023-02-11T04:57:01;40.00;;;17.42;;
30303;SDS011;17112;48.636;10.152;2023-02-11T04:59:27;38.70;;;17.83;;
30303;SDS011;17112;48.636;10.152;2023-02-11T05:01:53;36.15;;;16.50;;
30303;SDS011;17112;48.636;10.152;2023-02-11T05:04:19;37.97;;;18.00;;
30303;SDS011;17112;48.636;10.152;2023-02-11T05:06:44;39.10;;;17.35;;
30303;SDS011;17112;48.636;10.152;2023-02-11T05:09:11;34.67;;;15.75;;
30303;SDS011;17112;48.636;10.152;2023-02-11T05:11:37;39.17;;;17.48;;
30303;SDS011;17112;48.636;10.152;2023-02-11T05:14:03;33.80;;;16.48;;
30303;SDS011;17112;48.636;10.152;2023-02-11T05:16:30;37.03;;;17.98;;
30303;SDS011;17112;48.636;10.152;2023-02-11T05:18:56;37.35;;;17.98;;
30303;SDS011;17112;48.636;10.152;2023-02-11T05:21:22;36.42;;;18.63;;
30303;SDS011;17112;48.636;10.152;2023-02-11T05:23:48;35.75;;;17.98;;
30303;SDS011;17112;48.636;10.152;2023-02-11T05:26:14;37.45;;;19.00;;
30303;SDS011;17112;48.636;10.152;2023-02-11T05:28:40;40.92;;;17.98;;
30303;SDS011;17112;48.636;10.152;2023-02-11T05:31:06;36.65;;;17.52;;
30303;SDS011;17112;48.636;10.152;2023-02-11T05:33:32;29.42;;;16.35;;
30303;SDS011;17112;48.636;10.152;2023-02-11T05:35:59;34.65;;;17.67;;
30303;SDS011;17112;48.636;10.152;2023-02-11T05:38:29;40.50;;;16.73;;
30303;SDS011;17112;48.636;10.152;2023-02-11T05:40:56;36.67;;;16.65;;
30303;SDS011;17112;48.636;10.152;2023-02-11T05:43:22;34.60;;;17.23;;
30303;SDS011;17112;48.636;10.152;2023-02-11T05:45:47;34.05;;;16.50;;
30303;SDS011;17112;48.636;10.152;2023-02-11T05:48:13;37.88;;;17.27;;
30303;SDS011;17112;48.636;10.152;2023-02-11T05:50:39;33.45;;;16.73;;
30303;SDS011;17112;48.636;10.152;2023-02-11T05:53:05;31.80;;;17.08;;
30303;SDS011;17112;48.636;10.152;2023-02-11T05:55:31;32.20;;;16.90;;
30303;SDS011;17112;48.636;10.152;2023-02-11T05:57:57;32.95;;;15.85;;
30303;SDS011;17112;48.636;10.152;2023-02-11T06:00:23;32.60;;;15.98;;
30303;SDS011;17112;48.636;10.152;2023-02-11T06:02:49;36.83;;;16.60;;
30303;SDS011;17112;48.636;10.152;2023-02-11T06:05:14;31.75;;;15.73;;
30303;SDS011;17112;48.636;10.152;2023-02-11T06:07:40;35.10;;;17.55;;
30303;SDS011;17112;48.636;10.152;2023-02-11T06:10:06;40.22;;;17.98;;
30303;SDS011;17112;48.636;10.152;2023-02-11T06:12:32;32.20;;;16.55;;
30303;SDS011;17112;48.636;10.152;2023-02-11T06:14:57;37.03;;;16.48;;
30303;SDS011;17112;48.636;10.152;2023-02-11T06:17:23;30.75;;;15.73;;
30303;SDS011;17112;48.636;10.152;2023-02-11T06:19:49;38.10;;;17.83;;
30303;SDS011;17112;48.636;10.152;2023-02-11T06:22:15;31.63;;;16.63;;
30303;SDS011;17112;48.636;10.152;2023-02-11T06:24:41;34.47;;;17.90;;
30303;SDS011;17112;48.636;10.152;2023-02-11T06:27:07;34.72;;;17.10;;
30303;SDS011;17112;48.636;10.152;2023-02-11T06:29:32;51.60;;;21.40;;
30303;SDS011;17112;48.636;10.152;2023-02-11T06:31:58;53.30;;;22.63;;
30303;SDS011;17112;48.636;10.152;2023-02-11T06:34:24;40.03;;;21.10;;
30303;SDS011;17112;48.636;10.152;2023-02-11T06:36:49;145.68;;;51.95;;
30303;SDS011;17112;48.636;10.152;2023-02-11T06:39:15;74.47;;;33.55;;
30303;SDS011;17112;48.636;10.152;2023-02-11T06:41:41;48.33;;;23.50;;
30303;SDS011;17112;48.636;10.152;2023-02-11T06:44:06;52.70;;;23.08;;
30303;SDS011;17112;48.636;10.152;2023-02-11T06:46:32;40.03;;;20.75;;
30303;SDS011;17112;48.636;10.152;2023-02-11T06:48:58;42.45;;;19.02;;
30303;SDS011;17112;48.636;10.152;2023-02-11T06:51:23;47.05;;;21.90;;
30303;SDS011;17112;48.636;10.152;2023-02-11T06:53:49;40.80;;;19.20;;
30303;SDS011;17112;48.636;10.152;2023-02-11T06:56:16;38.42;;;17.98;;
30303;SDS011;17112;48.636;10.152;2023-02-11T06:58:43;41.30;;;18.27;;
30303;SDS011;17112;48.636;10.152;2023-02-11T07:01:11;36.63;;;18.15;;
30303;SDS011;17112;48.636;10.152;2023-02-11T07:03:39;35.58;;;17.70;;
30303;SDS011;17112;48.636;10.152;2023-02-11T07:06:07;33.83;;;17.20;;
30303;SDS011;17112;48.636;10.152;2023-02-11T07:08:36;43.85;;;18.48;;
30303;SDS011;17112;48.636;10.152;2023-02-11T07:11:13;33.38;;;16.92;;
30303;SDS011;17112;48.636;10.152;2023-02-11T07:13:43;36.88;;;18.17;;
30303;SDS011;17112;48.636;10.152;2023-02-11T07:16:11;43.58;;;22.88;;
30303;SDS011;17112;48.636;10.152;2023-02-11T07:18:38;52.55;;;27.10;;
30303;SDS011;17112;48.636;10.152;2023-02-11T07:21:08;46.67;;;22.98;;
30303;SDS011;17112;48.636;10.152;2023-02-11T07:23:39;43.15;;;21.25;;
30303;SDS011;17112;48.636;10.152;2023-02-11T07:26:12;41.22;;;20.40;;
30303;SDS011;17112;48.636;10.152;2023-02-11T07:28:39;41.97;;;20.90;;
30303;SDS011;17112;48.636;10.152;2023-02-11T07:31:22;41.75;;;21.05;;
30303;SDS011;17112;48.636;10.152;2023-02-11T07:33:50;35.28;;;16.95;;
30303;SDS011;17112;48.636;10.152;2023-02-11T07:36:17;45.13;;;20.48;;
30303;SDS011;17112;48.636;10.152;2023-02-11T07:38:43;46.17;;;21.77;;
30303;SDS011;17112;48.636;10.152;2023-02-11T07:41:10;42.42;;;21.08;;
30303;SDS011;17112;48.636;10.152;2023-02-11T07:43:38;39.95;;;20.58;;
30303;SDS011;17112;48.636;10.152;2023-02-11T07:46:05;37.33;;;19.90;;
30303;SDS011;17112;48.636;10.152;2023-02-11T07:48:32;44.83;;;20.85;;
30303;SDS011;17112;48.636;10.152;2023-02-11T07:51:06;41.45;;;20.52;;
30303;SDS011;17112;48.636;10.152;2023-02-11T07:53:33;38.25;;;18.98;;
30303;SDS011;17112;48.636;10.152;2023-02-11T07:55:59;34.40;;;17.75;;
30303;SDS011;17112;48.636;10.152;2023-02-11T07:58:24;41.95;;;18.35;;
30303;SDS011;17112;48.636;10.152;2023-02-11T08:00:50;37.60;;;18.70;;
30303;SDS011;17112;48.636;10.152;2023-02-11T08:03:15;36.78;;;19.45;;
30303;SDS011;17112;48.636;10.152;2023-02-11T08:05:41;33.33;;;17.52;;
30303;SDS011;17112;48.636;10.152;2023-02-11T08:08:07;35.13;;;18.80;;
30303;SDS011;17112;48.636;10.152;2023-02-11T08:10:33;38.70;;;20.02;;
30303;SDS011;17112;48.636;10.152;2023-02-11T08:12:59;36.25;;;18.98;;
30303;SDS011;17112;48.636;10.152;2023-02-11T08:15:24;35.60;;;20.05;;
30303;SDS011;17112;48.636;10.152;2023-02-11T08:17:50;39.08;;;20.83;;
30303;SDS011;17112;48.636;10.152;2023-02-11T08:20:16;41.20;;;20.33;;
30303;SDS011;17112;48.636;10.152;2023-02-11T08:22:41;34.92;;;20.23;;
30303;SDS011;17112;48.636;10.152;2023-02-11T08:25:07;41.33;;;20.35;;
30303;SDS011;17112;48.636;10.152;2023-02-11T08:27:33;38.05;;;20.48;;
30303;SDS011;17112;48.636;10.152;2023-02-11T08:29:58;40.20;;;21.27;;
30303;SDS011;17112;48.636;10.152;2023-02-11T08:32:24;35.67;;;19.30;;
30303;SDS011;17112;48.636;10.152;2023-02-11T08:34:50;39.08;;;20.25;;
30303;SDS011;17112;48.636;10.152;2023-02-11T08:37:16;36.03;;;19.92;;
30303;SDS011;17112;48.636;10.152;2023-02-11T08:39:42;34.58;;;19.20;;
30303;SDS011;17112;48.636;10.152;2023-02-11T08:42:08;36.33;;;20.60;;
30303;SDS011;17112;48.636;10.152;2023-02-11T08:44:34;35.72;;;19.92;;
30303;SDS011;17112;48.636;10.152;2023-02-11T08:46:59;30.70;;;17.92;;
30303;SDS011;17112;48.636;10.152;2023-02-11T08:49:25;32.75;;;18.73;;
30303;SDS011;17112;48.636;10.152;2023-02-11T08:51:51;39.10;;;20.02;;
30303;SDS011;17112;48.636;10.152;2023-02-11T08:54:18;39.45;;;20.35;;
30303;SDS011;17112;48.636;10.152;2023-02-11T08:56:44;40.45;;;21.95;;
30303;SDS011;17112;48.636;10.152;2023-02-11T08:59:11;43.90;;;22.52;;
30303;SDS011;17112;48.636;10.152;2023-02-11T09:01:38;41.97;;;23.13;;
30303;SDS011;17112;48.636;10.152;2023-02-11T09:04:04;35.45;;;21.50;;
30303;SDS011;17112;48.636;10.152;2023-02-11T09:06:30;43.67;;;22.67;;
30303;SDS011;17112;48.636;10.152;2023-02-11T09:08:56;38.72;;;22.15;;
30303;SDS011;17112;48.636;10.152;2023-02-11T09:11:40;44.28;;;23.10;;
30303;SDS011;17112;48.636;10.152;2023-02-11T09:14:07;41.30;;;22.60;;
30303;SDS011;17112;48.636;10.152;2023-02-11T09:16:36;34.70;;;20.10;;
30303;SDS011;17112;48.636;10.152;2023-02-11T09:19:03;31.13;;;18.13;;
30303;SDS011;17112;48.636;10.152;2023-02-11T09:21:29;39.10;;;20.83;;
30303;SDS011;17112;48.636;10.152;2023-02-11T09:23:55;35.70;;;18.35;;
30303;SDS011;17112;48.636;10.152;2023-02-11T09:26:23;31.80;;;18.63;;
30303;SDS011;17112;48.636;10.152;2023-02-11T09:28:53;32.45;;;18.27;;
30303;SDS011;17112;48.636;10.152;2023-02-11T09:31:20;27.80;;;16.85;;
30303;SDS011;17112;48.636;10.152;2023-02-11T09:33:49;29.02;;;16.45;;
30303;SDS011;17112;48.636;10.152;2023-02-11T09:36:19;26.20;;;15.05;;
30303;SDS011;17112;48.636;10.152;2023-02-11T09:38:47;25.23;;;15.23;;
30303;SDS011;17112;48.636;10.152;2023-02-11T09:41:20;22.30;;;12.30;;
30303;SDS011;17112;48.636;10.152;2023-02-11T09:43:55;22.30;;;11.45;;
30303;SDS011;17112;48.636;10.152;2023-02-11T09:46:23;18.50;;;10.02;;
30303;SDS011;17112;48.636;10.152;2023-02-11T09:48:52;19.95;;;9.30;;
30303;SDS011;17112;48.636;10.152;2023-02-11T09:51:20;20.73;;;12.25;;
30303;SDS011;17112;48.636;10.152;2023-02-11T09:56:52;45.90;;;25.80;;
30303;SDS011;17112;48.636;10.152;2023-02-11T09:59:18;20.73;;;12.40;;
30303;SDS011;17112;48.636;10.152;2023-02-11T10:10:51;12.13;;;7.60;;
30303;SDS011;17112;48.636;10.152;2023-02-11T10:18:28;13.75;;;7.72;;
30303;SDS011;17112;48.636;10.152;2023-02-11T10:23:40;12.57;;;7.53;;
30303;SDS011;17112;48.636;10.152;2023-02-11T10:26:11;11.73;;;7.38;;
30303;SDS011;17112;48.636;10.152;2023-02-11T10:28:40;13.77;;;8.07;;
30303;SDS011;17112;48.636;10.152;2023-02-11T10:31:08;15.45;;;8.57;;
30303;SDS011;17112;48.636;10.152;2023-02-11T10:34:22;10.25;;;7.25;;
30303;SDS011;17112;48.636;10.152;2023-02-11T10:36:36;11.10;;;7.32;;
30303;SDS011;17112;48.636;10.152;2023-02-11T10:39:20;14.90;;;8.77;;
30303;SDS011;17112;48.636;10.152;2023-02-11T10:41:51;11.23;;;7.32;;
30303;SDS011;17112;48.636;10.152;2023-02-11T10:46:51;10.27;;;5.68;;
30303;SDS011;17112;48.636;10.152;2023-02-11T10:49:51;26.58;;;6.80;;
30303;SDS011;17112;48.636;10.152;2023-02-11T10:54:39;17.60;;;6.30;;
30303;SDS011;17112;48.636;10.152;2023-02-11T10:57:05;10.10;;;5.18;;
30303;SDS011;17112;48.636;10.152;2023-02-11T10:59:36;5.80;;;4.50;;
30303;SDS011;17112;48.636;10.152;2023-02-11T11:02:50;7.25;;;4.20;;
30303;SDS011;17112;48.636;10.152;2023-02-11T11:05:00;8.18;;;3.78;;
30303;SDS011;17112;48.636;10.152;2023-02-11T11:07:32;9.32;;;3.72;;
30303;SDS011;17112;48.636;10.152;2023-02-11T11:10:06;5.43;;;3.10;;
30303;SDS011;17112;48.636;10.152;2023-02-11T11:12:52;5.43;;;2.90;;
30303;SDS011;17112;48.636;10.152;2023-02-11T11:15:19;6.93;;;3.42;;
30303;SDS011;17112;48.636;10.152;2023-02-11T11:17:50;5.55;;;3.35;;
30303;SDS011;17112;48.636;10.152;2023-02-11T11:20:53;5.90;;;3.38;;
30303;SDS011;17112;48.636;10.152;2023-02-11T11:23:29;6.40;;;3.30;;
30303;SDS011;17112;48.636;10.152;2023-02-11T11:28:37;6.88;;;3.28;;
30303;SDS011;17112;48.636;10.152;2023-02-11T11:31:11;8.02;;;3.67;;
30303;SDS011;17112;48.636;10.152;2023-02-11T11:33:43;7.55;;;3.50;;
30303;SDS011;17112;48.636;10.152;2023-02-11T11:36:10;4.57;;;3.00;;
30303;SDS011;17112;48.636;10.152;2023-02-11T11:38:42;8.88;;;3.70;;
30303;SDS011;17112;48.636;10.152;2023-02-11T11:41:35;8.57;;;4.53;;
30303;SDS011;17112;48.636;10.152;2023-02-11T11:46:45;8.65;;;5.43;;
30303;SDS011;17112;48.636;10.152;2023-02-11T11:54:47;5.82;;;4.15;;
30303;SDS011;17112;48.636;10.152;2023-02-11T11:57:21;7.18;;;4.07;;
30303;SDS011;17112;48.636;10.152;2023-02-11T11:59:51;6.43;;;4.10;;
30303;SDS011;17112;48.636;10.152;2023-02-11T12:05:13;6.72;;;4.00;;
30303;SDS011;17112;48.636;10.152;2023-02-11T12:16:26;7.20;;;4.07;;
30303;SDS011;17112;48.636;10.152;2023-02-11T12:27:22;10.55;;;6.28;;
30303;SDS011;17112;48.636;10.152;2023-02-11T12:32:56;6.78;;;4.32;;
30303;SDS011;17112;48.636;10.152;2023-02-11T12:38:45;7.35;;;4.30;;
30303;SDS011;17112;48.636;10.152;2023-02-11T12:44:08;7.72;;;4.85;;
30303;SDS011;17112;48.636;10.152;2023-02-11T12:46:56;12.95;;;6.03;;
30303;SDS011;17112;48.636;10.152;2023-02-11T12:49:52;11.48;;;5.88;;
30303;SDS011;17112;48.636;10.152;2023-02-11T12:53:22;9.73;;;5.85;;
30303;SDS011;17112;48.636;10.152;2023-02-11T12:55:45;8.70;;;5.10;;
30303;SDS011;17112;48.636;10.152;2023-02-11T12:58:17;9.68;;;5.43;;
30303;SDS011;17112;48.636;10.152;2023-02-11T13:00:48;11.80;;;6.25;;
30303;SDS011;17112;48.636;10.152;2023-02-11T13:03:22;11.02;;;6.25;;
30303;SDS011;17112;48.636;10.152;2023-02-11T13:06:33;9.70;;;5.75;;
30303;SDS011;17112;48.636;10.152;2023-02-11T13:09:03;10.32;;;6.40;;
30303;SDS011;17112;48.636;10.152;2023-02-11T13:11:36;10.73;;;6.20;;
30303;SDS011;17112;48.636;10.152;2023-02-11T13:16:54;11.15;;;7.50;;
30303;SDS011;17112;48.636;10.152;2023-02-11T13:19:27;9.75;;;6.20;;
30303;SDS011;17112;48.636;10.152;2023-02-11T13:24:42;13.73;;;6.75;;
30303;SDS011;17112;48.636;10.152;2023-02-11T13:35:36;11.60;;;7.15;;
30303;SDS011;17112;48.636;10.152;2023-02-11T13:38:16;11.57;;;6.32;;
30303;SDS011;17112;48.636;10.152;2023-02-11T13:40:49;10.57;;;6.45;;
30303;SDS011;17112;48.636;10.152;2023-02-11T13:43:25;12.93;;;7.20;;
30303;SDS011;17112;48.636;10.152;2023-02-11T13:46:01;22.73;;;6.72;;
30303;SDS011;17112;48.636;10.152;2023-02-11T13:48:28;11.60;;;7.25;;
30303;SDS011;17112;48.636;10.152;2023-02-11T13:51:09;12.13;;;7.55;;
30303;SDS011;17112;48.636;10.152;2023-02-11T13:59:05;13.73;;;7.50;;
30303;SDS011;17112;48.636;10.152;2023-02-11T14:11:00;12.25;;;6.97;;
30303;SDS011;17112;48.636;10.152;2023-02-11T14:13:36;10.70;;;6.95;;
30303;SDS011;17112;48.636;10.152;2023-02-11T14:16:27;13.15;;;8.32;;
30303;SDS011;17112;48.636;10.152;2023-02-11T14:23:50;11.95;;;7.70;;
30303;SDS011;17112;48.636;10.152;2023-02-11T14:29:29;13.48;;;7.25;;
30303;SDS011;17112;48.636;10.152;2023-02-11T14:31:44;10.95;;;6.97;;
30303;SDS011;17112;48.636;10.152;2023-02-11T14:37:13;11.50;;;6.93;;
30303;SDS011;17112;48.636;10.152;2023-02-11T14:42:35;14.18;;;6.90;;
30303;SDS011;17112;48.636;10.152;2023-02-11T14:45:03;12.02;;;6.78;;
30303;SDS011;17112;48.636;10.152;2023-02-11T14:47:41;13.27;;;7.82;;
30303;SDS011;17112;48.636;10.152;2023-02-11T14:50:16;12.18;;;7.60;;
30303;SDS011;17112;48.636;10.152;2023-02-11T14:52:51;12.15;;;7.22;;
30303;SDS011;17112;48.636;10.152;2023-02-11T14:55:29;14.50;;;8.18;;
30303;SDS011;17112;48.636;10.152;2023-02-11T14:58:18;12.77;;;8.32;;
30303;SDS011;17112;48.636;10.152;2023-02-11T15:03:24;11.93;;;7.72;;
30303;SDS011;17112;48.636;10.152;2023-02-11T15:05:54;9.35;;;5.78;;
30303;SDS011;17112;48.636;10.152;2023-02-11T15:08:31;14.90;;;7.82;;
30303;SDS011;17112;48.636;10.152;2023-02-11T15:11:02;10.55;;;7.38;;
30303;SDS011;17112;48.636;10.152;2023-02-11T15:13:31;11.13;;;6.97;;
30303;SDS011;17112;48.636;10.152;2023-02-11T15:16:05;13.50;;;7.78;;
30303;SDS011;17112;48.636;10.152;2023-02-11T15:18:37;9.77;;;7.28;;
30303;SDS011;17112;48.636;10.152;2023-02-11T15:21:06;11.80;;;7.00;;
30303;SDS011;17112;48.636;10.152;2023-02-11T15:23:32;11.77;;;7.63;;
30303;SDS011;17112;48.636;10.152;2023-02-11T15:25:58;12.20;;;7.22;;
30303;SDS011;17112;48.636;10.152;2023-02-11T15:28:32;12.93;;;7.63;;
30303;SDS011;17112;48.636;10.152;2023-02-11T15:31:13;12.23;;;7.65;;
30303;SDS011;17112;48.636;10.152;2023-02-11T15:33:40;13.20;;;6.90;;
30303;SDS011;17112;48.636;10.152;2023-02-11T15:36:06;12.38;;;6.97;;
30303;SDS011;17112;48.636;10.152;2023-02-11T15:38:34;10.68;;;6.90;;
30303;SDS011;17112;48.636;10.152;2023-02-11T15:41:01;14.57;;;7.65;;
30303;SDS011;17112;48.636;10.152;2023-02-11T15:43:43;12.80;;;7.47;;
30303;SDS011;17112;48.636;10.152;2023-02-11T15:46:12;12.20;;;6.80;;
30303;SDS011;17112;48.636;10.152;2023-02-11T15:48:45;12.25;;;6.90;;
30303;SDS011;17112;48.636;10.152;2023-02-11T15:51:20;12.07;;;7.72;;
30303;SDS011;17112;48.636;10.152;2023-02-11T15:53:56;10.98;;;5.95;;
30303;SDS011;17112;48.636;10.152;2023-02-11T15:59:09;11.57;;;7.32;;
30303;SDS011;17112;48.636;10.152;2023-02-11T16:01:49;13.40;;;6.97;;
30303;SDS011;17112;48.636;10.152;2023-02-11T16:04:18;12.75;;;7.10;;
30303;SDS011;17112;48.636;10.152;2023-02-11T16:06:48;10.75;;;6.60;;
30303;SDS011;17112;48.636;10.152;2023-02-11T16:14:19;14.88;;;8.25;;
30303;SDS011;17112;48.636;10.152;2023-02-11T16:16:55;15.50;;;8.02;;
30303;SDS011;17112;48.636;10.152;2023-02-11T16:19:23;12.27;;;7.38;;
30303;SDS011;17112;48.636;10.152;2023-02-11T16:21:51;12.35;;;7.80;;
30303;SDS011;17112;48.636;10.152;2023-02-11T16:26:56;18.60;;;10.75;;
30303;SDS011;17112;48.636;10.152;2023-02-11T16:29:30;15.32;;;9.43;;
30303;SDS011;17112;48.636;10.152;2023-02-11T16:32:06;24.92;;;14.10;;
30303;SDS011;17112;48.636;10.152;2023-02-11T16:34:34;20.08;;;10.68;;
30303;SDS011;17112;48.636;10.152;2023-02-11T16:37:02;15.43;;;9.30;;
30303;SDS011;17112;48.636;10.152;2023-02-11T16:39:29;12.50;;;8.35;;
30303;SDS011;17112;48.636;10.152;2023-02-11T16:41:54;18.20;;;8.25;;
30303;SDS011;17112;48.636;10.152;2023-02-11T16:44:21;16.05;;;9.43;;
30303;SDS011;17112;48.636;10.152;2023-02-11T16:46:47;18.58;;;10.43;;
30303;SDS011;17112;48.636;10.152;2023-02-11T16:49:15;16.90;;;10.88;;
30303;SDS011;17112;48.636;10.152;2023-02-11T16:51:46;23.08;;;11.30;;
30303;SDS011;17112;48.636;10.152;2023-02-11T16:54:15;19.10;;;10.30;;
30303;SDS011;17112;48.636;10.152;2023-02-11T16:56:42;30.25;;;15.05;;
30303;SDS011;17112;48.636;10.152;2023-02-11T16:59:08;38.15;;;16.92;;
30303;SDS011;17112;48.636;10.152;2023-02-11T17:01:33;33.20;;;18.17;;
30303;SDS011;17112;48.636;10.152;2023-02-11T17:04:00;32.38;;;18.35;;